createdAt,value
2023-04-28T00:02:21.425Z,6.00
2023-04-28T00:04:48.964Z,5.50
2023-04-28T00:07:16.427Z,5.60
2023-04-28T00:09:43.853Z,5.10
2023-04-28T00:12:11.678Z,5.60
2023-04-28T00:14:39.465Z,5.20
2023-04-28T00:17:07.010Z,5.30
2023-04-28T00:19:34.805Z,5.30
2023-04-28T00:22:02.239Z,5.20
2023-04-28T00:24:29.604Z,4.40
2023-04-28T00:26:57.903Z,6.00
2023-04-28T00:29:25.267Z,5.00
2023-04-28T00:31:52.871Z,4.80
2023-04-28T00:34:20.244Z,4.70
2023-04-28T00:36:47.636Z,5.20
2023-04-28T00:39:16.888Z,5.00
2023-04-28T00:41:44.237Z,4.40
2023-04-28T00:44:11.872Z,4.40
2023-04-28T00:46:39.355Z,4.90
2023-04-28T00:49:06.714Z,4.20
2023-04-28T00:51:34.125Z,5.20
2023-04-28T00:54:02.088Z,4.20
2023-04-28T00:56:31.335Z,4.90
2023-04-28T00:58:59.043Z,4.50
2023-04-28T01:01:26.516Z,4.40
2023-04-28T01:03:54.209Z,4.60
2023-04-28T01:06:22.617Z,4.50
2023-04-28T01:08:51.169Z,4.60
2023-04-28T01:11:18.547Z,4.50
2023-04-28T01:13:45.904Z,4.60
2023-04-28T01:16:13.845Z,5.00
2023-04-28T01:18:47.699Z,6.20
2023-04-28T01:21:15.188Z,4.70
2023-04-28T01:23:46.568Z,5.30
2023-04-28T01:26:14.164Z,4.60
2023-04-28T01:28:41.542Z,5.20
2023-04-28T01:31:08.993Z,4.00
2023-04-28T01:33:38.175Z,4.90
2023-04-28T01:36:05.919Z,4.50
2023-04-28T01:38:33.290Z,4.50
2023-04-28T01:41:02.646Z,4.50
2023-04-28T01:43:30.001Z,4.40
2023-04-28T01:45:57.279Z,4.90
2023-04-28T01:48:25.002Z,4.40
2023-04-28T01:50:52.316Z,4.60
2023-04-28T01:53:20.760Z,4.70
2023-04-28T01:55:48.281Z,4.60
2023-04-28T01:58:16.194Z,4.20
2023-04-28T02:00:43.524Z,4.00
2023-04-28T02:03:11.214Z,5.00
2023-04-28T02:05:38.658Z,4.40
2023-04-28T02:08:06.267Z,4.70
2023-04-28T02:10:33.680Z,4.20
2023-04-28T02:13:01.222Z,5.30
2023-04-28T02:15:28.560Z,4.00
2023-04-28T02:17:56.128Z,4.00
2023-04-28T02:20:23.434Z,4.40
2023-04-28T02:22:51.111Z,4.30
2023-04-28T02:25:18.636Z,3.80
2023-04-28T02:27:46.213Z,3.80
2023-04-28T02:30:13.903Z,4.80
2023-04-28T02:32:41.242Z,4.10
2023-04-28T02:35:08.966Z,4.60
2023-04-28T02:37:36.274Z,4.20
2023-04-28T02:40:03.947Z,4.80
2023-04-28T02:42:31.323Z,4.50
2023-04-28T02:44:58.652Z,4.80
2023-04-28T02:47:25.977Z,4.90
2023-04-28T02:49:53.306Z,5.10
2023-04-28T02:52:20.756Z,4.60
2023-04-28T02:54:49.341Z,4.00
2023-04-28T02:57:16.838Z,4.10
2023-04-28T02:59:44.223Z,4.40
2023-04-28T03:02:12.864Z,4.40
2023-04-28T03:04:40.188Z,4.80
2023-04-28T03:07:07.836Z,4.80
2023-04-28T03:09:35.203Z,4.00
2023-04-28T03:12:03.632Z,4.70
2023-04-28T03:14:30.977Z,5.50
2023-04-28T03:16:58.542Z,4.60
2023-04-28T03:19:26.792Z,4.80
2023-04-28T03:21:54.228Z,4.40
2023-04-28T03:24:22.169Z,5.10
2023-04-28T03:26:49.839Z,4.50
2023-04-28T03:29:17.468Z,4.50
2023-04-28T03:31:44.858Z,4.70
2023-04-28T03:34:12.464Z,5.40
2023-04-28T03:36:39.869Z,4.60
2023-04-28T03:39:07.258Z,5.00
2023-04-28T03:41:34.568Z,5.20
2023-04-28T03:44:02.022Z,4.50
2023-04-28T03:46:29.491Z,5.40
2023-04-28T03:48:57.114Z,4.60
2023-04-28T03:51:24.576Z,4.00
2023-04-28T03:53:51.941Z,4.40
2023-04-28T03:56:19.249Z,4.80
2023-04-28T03:58:46.666Z,4.70
2023-04-28T04:01:14.533Z,5.40
2023-04-28T04:03:42.224Z,4.50
2023-04-28T04:06:09.855Z,4.60
2023-04-28T04:08:37.956Z,5.30
2023-04-28T04:11:07.781Z,5.50
2023-04-28T04:13:35.164Z,5.20
2023-04-28T04:16:02.818Z,4.90
2023-04-28T04:18:30.247Z,5.10
2023-04-28T04:20:57.975Z,5.40
2023-04-28T04:23:25.341Z,4.80
2023-04-28T04:25:52.899Z,6.20
2023-04-28T04:28:20.299Z,5.00
2023-04-28T04:30:48.061Z,5.10
2023-04-28T04:33:15.442Z,4.90
2023-04-28T04:35:42.745Z,4.80
2023-04-28T04:38:10.939Z,5.00
2023-04-28T04:40:38.732Z,5.00
2023-04-28T04:43:06.552Z,5.20
2023-04-28T04:45:33.962Z,5.10
2023-04-28T04:48:02.046Z,5.20
2023-04-28T04:50:29.477Z,5.70
2023-04-28T04:52:57.619Z,5.10
2023-04-28T04:55:25.072Z,5.80
2023-04-28T04:57:53.973Z,5.30
2023-04-28T05:00:21.674Z,5.30
2023-04-28T05:02:49.361Z,5.40
2023-04-28T05:05:22.048Z,5.50
2023-04-28T05:07:50.731Z,5.50
2023-04-28T05:10:18.604Z,5.60
2023-04-28T05:12:49.000Z,5.60
2023-04-28T05:15:17.245Z,5.70
2023-04-28T05:17:47.965Z,5.10
2023-04-28T05:20:18.365Z,5.80
2023-04-28T05:22:57.403Z,5.80
2023-04-28T05:25:24.888Z,4.80
2023-04-28T05:27:54.268Z,5.80
2023-04-28T05:30:26.632Z,5.90
2023-04-28T05:33:21.005Z,6.10
2023-04-28T05:35:52.035Z,6.20
2023-04-28T05:38:29.985Z,6.20
2023-04-28T05:40:58.946Z,5.50
2023-04-28T05:43:35.890Z,6.40
2023-04-28T05:46:09.758Z,6.60
2023-04-28T05:48:44.852Z,6.60
2023-04-28T05:51:12.452Z,6.60
2023-04-28T05:53:42.303Z,6.90
2023-04-28T05:56:13.667Z,6.60
2023-04-28T05:58:44.748Z,6.70
2023-04-28T06:01:13.538Z,6.70
2023-04-28T06:04:11.930Z,6.80
2023-04-28T06:07:13.305Z,7.00
2023-04-28T06:09:45.048Z,6.70
2023-04-28T06:12:12.578Z,5.70
2023-04-28T06:14:43.735Z,6.80
2023-04-28T06:17:11.408Z,6.90
2023-04-28T06:19:39.078Z,6.80
2023-04-28T06:22:07.142Z,6.70
2023-04-28T06:24:38.550Z,6.70
2023-04-28T06:27:06.746Z,6.70
2023-04-28T06:29:36.743Z,6.50
2023-04-28T06:32:05.171Z,6.80
2023-04-28T06:34:33.134Z,6.70
2023-04-28T06:37:01.542Z,6.70
2023-04-28T06:39:29.083Z,6.80
2023-04-28T06:41:57.994Z,6.70
2023-04-28T06:44:26.247Z,5.50
2023-04-28T06:46:54.032Z,7.00
2023-04-28T06:49:22.966Z,7.10
2023-04-28T06:51:50.621Z,7.20
2023-04-28T06:54:19.465Z,7.20
2023-04-28T06:56:47.222Z,7.30
2023-04-28T06:59:15.566Z,7.10
2023-04-28T07:01:44.822Z,7.00
2023-04-28T07:04:12.937Z,7.00
2023-04-28T07:06:43.212Z,7.10
2023-04-28T07:09:10.916Z,7.10
2023-04-28T07:11:38.573Z,7.00
2023-04-28T07:14:06.164Z,6.70
2023-04-28T07:16:33.785Z,6.60
2023-04-28T07:19:01.623Z,6.50
2023-04-28T07:21:29.268Z,6.00
2023-04-28T07:23:57.811Z,6.60
2023-04-28T07:26:26.542Z,6.60
2023-04-28T07:28:55.693Z,6.60
2023-04-28T07:31:23.617Z,6.70
2023-04-28T07:33:52.171Z,6.60
2023-04-28T07:36:19.876Z,6.70
2023-04-28T07:38:51.158Z,6.70
2023-04-28T07:41:24.134Z,6.90
2023-04-28T07:43:52.312Z,6.90
2023-04-28T07:46:19.952Z,7.00
2023-04-28T07:48:47.456Z,6.60
2023-04-28T07:51:14.903Z,6.60
2023-04-28T07:53:42.482Z,6.60
2023-04-28T07:56:10.104Z,6.60
2023-04-28T07:58:39.243Z,6.60
2023-04-28T08:01:07.097Z,6.70
2023-04-28T08:03:35.342Z,6.70
2023-04-28T08:06:03.106Z,5.70
2023-04-28T08:08:31.741Z,6.60
2023-04-28T08:10:59.607Z,6.50
2023-04-28T08:13:28.719Z,6.70
2023-04-28T08:16:00.788Z,6.80
2023-04-28T08:18:33.183Z,6.80
2023-04-28T08:21:04.039Z,7.10
2023-04-28T08:23:34.676Z,7.00
2023-04-28T08:26:05.959Z,7.20
2023-04-28T08:28:35.872Z,7.20
2023-04-28T08:31:05.457Z,7.20
2023-04-28T08:33:33.173Z,7.20
2023-04-28T08:36:08.262Z,7.40
2023-04-28T08:38:36.432Z,7.40
2023-04-28T08:41:05.221Z,7.40
2023-04-28T08:43:42.907Z,7.40
2023-04-28T08:46:11.377Z,7.30
2023-04-28T08:48:47.888Z,7.20
2023-04-28T08:51:17.164Z,7.20
2023-04-28T08:54:14.889Z,7.30
2023-04-28T08:56:41.193Z,7.30
2023-04-28T08:59:10.270Z,7.50
2023-04-28T09:01:38.420Z,7.60
2023-04-28T09:04:06.204Z,7.60
2023-04-28T09:06:38.124Z,7.60
2023-04-28T09:09:28.394Z,7.70
2023-04-28T09:12:01.648Z,8.00
2023-04-28T09:14:30.919Z,8.30
2023-04-28T09:16:59.209Z,8.50
2023-04-28T09:19:34.788Z,8.50
2023-04-28T09:22:13.834Z,8.60
2023-04-28T09:24:50.593Z,8.60
2023-04-28T09:27:30.230Z,8.90
2023-04-28T09:29:58.030Z,8.80
2023-04-28T09:32:28.668Z,8.90
2023-04-28T09:34:59.978Z,8.60
2023-04-28T09:37:32.914Z,9.30
2023-04-28T09:40:12.752Z,9.30
2023-04-28T09:42:46.767Z,8.90
2023-04-28T09:45:17.264Z,9.50
2023-04-28T09:47:47.146Z,10.60
2023-04-28T09:50:19.758Z,9.80
2023-04-28T09:52:58.567Z,10.00
2023-04-28T09:55:29.114Z,10.20
2023-04-28T09:57:59.316Z,10.20
2023-04-28T10:00:27.774Z,10.70
2023-04-28T10:02:56.253Z,10.50
2023-04-28T10:05:29.057Z,11.00
2023-04-28T10:07:57.423Z,10.20
2023-04-28T10:10:25.797Z,10.60
2023-04-28T10:12:53.992Z,11.00
2023-04-28T10:15:26.349Z,11.40
2023-04-28T10:17:54.322Z,11.70
2023-04-28T10:20:23.145Z,11.80
2023-04-28T10:23:00.062Z,11.20
2023-04-28T10:25:27.813Z,11.10
2023-04-28T10:27:55.874Z,11.30
2023-04-28T10:30:28.671Z,11.70
2023-04-28T10:33:12.412Z,11.80
2023-04-28T10:35:43.455Z,11.90
2023-04-28T10:38:22.356Z,11.80
2023-04-28T10:41:01.962Z,11.70
2023-04-28T10:43:29.797Z,12.10
2023-04-28T10:46:06.344Z,12.10
2023-04-28T10:48:34.035Z,12.30
2023-04-28T10:51:07.552Z,12.70
2023-04-28T10:53:48.148Z,13.00
2023-04-28T10:56:24.987Z,12.80
2023-04-28T10:58:59.719Z,12.80
2023-04-28T11:01:32.529Z,13.20
2023-04-28T11:04:13.764Z,12.90
2023-04-28T11:06:48.019Z,12.90
2023-04-28T11:09:15.615Z,13.10
2023-04-28T11:12:11.081Z,13.20
2023-04-28T11:14:43.282Z,13.20
2023-04-28T11:17:17.593Z,13.20
2023-04-28T11:19:51.488Z,13.30
2023-04-28T11:22:20.902Z,13.30
2023-04-28T11:25:00.129Z,13.30
2023-04-28T11:27:30.005Z,13.30
2023-04-28T11:29:58.515Z,13.10
2023-04-28T11:32:29.629Z,12.90
2023-04-28T11:34:57.777Z,13.00
2023-04-28T11:37:25.483Z,11.80
2023-04-28T11:39:53.473Z,11.70
2023-04-28T11:42:20.898Z,11.80
2023-04-28T11:44:53.227Z,11.90
2023-04-28T11:47:33.166Z,12.00
2023-04-28T11:50:01.678Z,12.30
2023-04-28T11:52:29.486Z,12.40
2023-04-28T11:55:00.539Z,12.10
2023-04-28T11:57:28.943Z,12.20
2023-04-28T12:00:19.700Z,12.00
2023-04-28T12:02:47.919Z,11.90
2023-04-28T12:05:15.674Z,11.90
2023-04-28T12:07:44.580Z,11.90
2023-04-28T12:10:14.382Z,11.90
2023-04-28T12:15:13.032Z,11.90
2023-04-28T12:17:42.097Z,12.00
2023-04-28T12:20:11.962Z,12.00
2023-04-28T12:22:46.993Z,12.00
2023-04-28T12:25:19.509Z,13.00
2023-04-28T12:28:04.164Z,12.40
2023-04-28T12:30:39.448Z,12.30
2023-04-28T12:33:21.515Z,12.20
2023-04-28T12:35:50.131Z,11.70
2023-04-28T12:38:18.410Z,11.30
2023-04-28T12:40:46.132Z,10.80
2023-04-28T12:43:13.703Z,11.20
2023-04-28T12:45:42.143Z,10.90
2023-04-28T12:48:09.646Z,10.60
2023-04-28T12:50:37.089Z,10.40
2023-04-28T12:53:05.054Z,11.00
2023-04-28T12:55:32.857Z,10.00
2023-04-28T12:58:00.708Z,9.80
2023-04-28T13:00:28.292Z,9.80
2023-04-28T13:02:55.897Z,9.90
2023-04-28T13:05:23.978Z,10.00
2023-04-28T13:07:53.994Z,10.00
2023-04-28T13:10:24.369Z,9.90
2023-04-28T13:12:52.491Z,9.60
2023-04-28T13:15:20.058Z,9.60
2023-04-28T13:17:48.806Z,9.30
2023-04-28T13:20:16.232Z,9.10
2023-04-28T13:22:43.919Z,9.00
2023-04-28T13:25:11.697Z,9.00
2023-04-28T13:27:40.663Z,8.10
2023-04-28T13:30:10.235Z,8.80
2023-04-28T13:32:37.823Z,8.80
2023-04-28T13:35:05.792Z,8.70
2023-04-28T13:37:33.421Z,8.60
2023-04-28T13:40:04.297Z,8.40
2023-04-28T13:42:31.891Z,8.10
2023-04-28T13:44:59.296Z,8.50
2023-04-28T13:47:28.129Z,8.50
2023-04-28T13:49:55.532Z,8.60
2023-04-28T13:52:23.518Z,8.50
2023-04-28T13:54:51.115Z,8.50
2023-04-28T13:57:18.575Z,8.60
2023-04-28T13:59:45.977Z,8.00
2023-04-28T14:02:13.354Z,8.10
2023-04-28T14:04:41.181Z,7.00
2023-04-28T14:07:09.601Z,8.10
2023-04-28T14:09:37.144Z,8.00
2023-04-28T14:12:06.905Z,8.10
2023-04-28T14:14:34.290Z,8.20
2023-04-28T14:17:02.793Z,8.20
2023-04-28T14:19:30.848Z,8.20
2023-04-28T14:21:58.696Z,8.50
2023-04-28T14:24:26.239Z,8.30
2023-04-28T14:26:53.788Z,8.40
2023-04-28T14:29:21.473Z,8.40
2023-04-28T14:31:48.925Z,8.70
2023-04-28T14:34:16.335Z,8.40
2023-04-28T14:36:43.800Z,8.40
2023-04-28T14:39:11.496Z,8.30
2023-04-28T14:41:38.952Z,8.30
2023-04-28T14:44:06.696Z,8.40
2023-04-28T14:46:34.236Z,8.20
2023-04-28T14:49:02.906Z,8.10
2023-04-28T14:51:30.255Z,7.80
2023-04-28T14:53:57.585Z,7.80
2023-04-28T14:56:25.283Z,7.70
2023-04-28T14:58:52.867Z,7.80
2023-04-28T15:01:20.337Z,7.80
2023-04-28T15:03:47.818Z,7.70
2023-04-28T15:06:15.583Z,7.60
2023-04-28T15:08:43.078Z,7.70
2023-04-28T15:11:10.741Z,7.80
2023-04-28T15:13:39.468Z,8.00
2023-04-28T15:16:07.983Z,8.10
2023-04-28T15:18:35.439Z,8.20
2023-04-28T15:21:02.926Z,8.10
2023-04-28T15:23:30.269Z,8.00
2023-04-28T15:25:58.745Z,8.10
2023-04-28T15:28:27.513Z,8.10
2023-04-28T15:30:55.573Z,8.30
2023-04-28T15:33:24.461Z,8.00
2023-04-28T15:35:52.369Z,8.50
2023-04-28T15:38:19.928Z,8.30
2023-04-28T15:40:47.663Z,8.00
2023-04-28T15:43:15.001Z,7.80
2023-04-28T15:45:44.250Z,7.50
2023-04-28T15:48:12.398Z,7.50
2023-04-28T15:50:40.292Z,7.10
2023-04-28T15:53:08.184Z,7.70
2023-04-28T15:55:35.579Z,7.70
2023-04-28T15:58:03.785Z,7.70
2023-04-28T16:00:31.718Z,7.70
2023-04-28T16:03:00.790Z,7.70
2023-04-28T16:05:28.606Z,7.60
2023-04-28T16:07:56.153Z,7.70
2023-04-28T16:10:23.592Z,7.70
2023-04-28T16:12:51.048Z,7.70
2023-04-28T16:15:18.699Z,7.80
2023-04-28T16:17:46.153Z,7.70
2023-04-28T16:20:13.669Z,7.90
2023-04-28T16:22:42.311Z,7.90
2023-04-28T16:25:10.879Z,7.90
2023-04-28T16:27:39.243Z,7.70
2023-04-28T16:30:07.763Z,7.60
2023-04-28T16:32:38.758Z,7.00
2023-04-28T16:35:11.265Z,7.60
2023-04-28T16:37:41.123Z,7.60
2023-04-28T16:40:09.280Z,7.50
2023-04-28T16:42:37.051Z,7.40
2023-04-28T16:45:05.382Z,7.40
2023-04-28T16:47:33.561Z,7.20
2023-04-28T16:50:01.313Z,7.70
2023-04-28T16:52:28.840Z,7.10
2023-04-28T16:54:56.185Z,7.00
2023-04-28T16:57:23.552Z,7.00
2023-04-28T16:59:52.153Z,7.10
2023-04-28T17:02:19.798Z,7.80
2023-04-28T17:04:47.432Z,7.00
2023-04-28T17:07:14.891Z,6.00
2023-04-28T17:09:42.312Z,6.90
2023-04-28T17:12:10.041Z,6.90
2023-04-28T17:14:40.715Z,7.60
2023-04-28T17:17:08.306Z,6.90
2023-04-28T17:19:35.935Z,7.00
2023-04-28T17:22:03.379Z,7.30
2023-04-28T17:24:30.965Z,7.10
2023-04-28T17:26:58.319Z,7.20
2023-04-28T17:29:26.194Z,7.20
2023-04-28T17:31:53.815Z,7.00
2023-04-28T17:34:21.739Z,7.00
2023-04-28T17:36:49.126Z,6.90
2023-04-28T17:39:16.879Z,6.90
2023-04-28T17:41:45.314Z,6.80
2023-04-28T17:44:12.932Z,6.70
2023-04-28T17:46:40.626Z,6.50
2023-04-28T17:49:07.997Z,6.50
2023-04-28T17:51:35.518Z,6.40
2023-04-28T17:54:02.890Z,6.40
2023-04-28T17:56:30.346Z,6.60
2023-04-28T17:58:57.854Z,6.30
2023-04-28T18:01:25.546Z,6.20
2023-04-28T18:03:53.168Z,6.10
2023-04-28T18:06:22.429Z,6.30
2023-04-28T18:08:50.118Z,6.30
2023-04-28T18:11:17.602Z,6.10
2023-04-28T18:13:45.090Z,6.00
2023-04-28T18:16:15.198Z,5.90
2023-04-28T18:18:42.661Z,6.20
2023-04-28T18:21:10.173Z,5.90
2023-04-28T18:23:39.727Z,6.20
2023-04-28T18:26:07.025Z,5.80
2023-04-28T18:28:34.552Z,5.80
2023-04-28T18:31:05.152Z,5.80
2023-04-28T18:33:33.250Z,6.00
2023-04-28T18:36:06.445Z,3.80
2023-04-28T18:38:36.678Z,6.00
2023-04-28T18:41:18.079Z,6.70
2023-04-28T18:43:45.669Z,6.10
2023-04-28T18:46:13.424Z,6.00
2023-04-28T18:48:41.100Z,5.80
2023-04-28T18:51:08.796Z,5.70
2023-04-28T18:53:36.574Z,5.60
2023-04-28T18:56:04.104Z,6.20
2023-04-28T18:58:32.005Z,5.80
2023-04-28T19:00:59.700Z,6.00
2023-04-28T19:03:27.220Z,5.80
2023-04-28T19:05:54.692Z,5.80
2023-04-28T19:08:22.139Z,5.80
2023-04-28T19:10:49.611Z,6.40
2023-04-28T19:13:17.559Z,6.00
2023-04-28T19:15:44.971Z,6.10
2023-04-28T19:18:12.811Z,6.00
2023-04-28T19:20:42.166Z,5.90
2023-04-28T19:23:09.695Z,6.30
2023-04-28T19:25:37.190Z,5.40
2023-04-28T19:28:04.737Z,6.00
2023-04-28T19:30:32.296Z,6.20
2023-04-28T19:32:59.852Z,5.90
2023-04-28T19:35:27.336Z,5.80
2023-04-28T19:37:56.065Z,5.90
2023-04-28T19:40:23.631Z,5.40
2023-04-28T19:42:51.491Z,5.90
2023-04-28T19:45:19.340Z,6.20
2023-04-28T19:47:47.228Z,5.80
2023-04-28T19:50:14.894Z,5.80
2023-04-28T19:52:42.605Z,6.00
2023-04-28T19:55:11.139Z,5.80
2023-04-28T19:57:38.605Z,6.20
2023-04-28T20:00:08.204Z,5.70
2023-04-28T20:02:35.671Z,5.70
2023-04-28T20:05:03.881Z,5.80
2023-04-28T20:07:31.491Z,5.70
2023-04-28T20:09:58.907Z,5.80
2023-04-28T20:12:26.571Z,6.00
2023-04-28T20:14:54.368Z,6.20
2023-04-28T20:17:22.280Z,6.10
2023-04-28T20:19:50.031Z,6.10
2023-04-28T20:22:17.654Z,6.10
2023-04-28T20:24:45.124Z,6.00
2023-04-28T20:27:12.566Z,6.10
2023-04-28T20:29:39.935Z,6.10
2023-04-28T20:32:07.450Z,6.20
2023-04-28T20:34:34.980Z,6.20
2023-04-28T20:37:06.853Z,6.40
2023-04-28T20:39:34.639Z,6.30
2023-04-28T20:42:02.771Z,6.30
2023-04-28T20:44:30.196Z,6.30
2023-04-28T20:46:58.046Z,6.20
2023-04-28T20:49:25.565Z,6.20
2023-04-28T20:51:52.983Z,6.30
2023-04-28T20:54:20.479Z,6.30
2023-04-28T20:56:47.834Z,6.40
2023-04-28T20:59:15.435Z,6.20
2023-04-28T21:01:42.926Z,6.00
2023-04-28T21:04:10.519Z,6.00
2023-04-28T21:06:38.529Z,6.10
2023-04-28T21:09:06.021Z,6.30
2023-04-28T21:11:33.451Z,5.80
2023-04-28T21:14:01.391Z,6.00
2023-04-28T21:16:28.929Z,5.80
2023-04-28T21:18:56.859Z,5.80
2023-04-28T21:21:24.366Z,5.70
2023-04-28T21:23:51.783Z,5.70
2023-04-28T21:26:24.116Z,5.60
2023-04-28T21:28:51.442Z,5.60
2023-04-28T21:31:18.916Z,5.50
2023-04-28T21:33:46.321Z,5.50
2023-04-28T21:36:13.682Z,5.30
2023-04-28T21:38:41.021Z,5.50
2023-04-28T21:41:09.273Z,5.30
2023-04-28T21:43:36.687Z,5.20
2023-04-28T21:46:04.227Z,5.10
2023-04-28T21:48:31.701Z,5.10
2023-04-28T21:51:00.235Z,5.00
2023-04-28T21:53:28.706Z,5.00
2023-04-28T21:55:56.120Z,5.00
2023-04-28T21:58:23.966Z,5.10
2023-04-28T22:00:51.731Z,5.10
2023-04-28T22:03:19.939Z,5.20
2023-04-28T22:05:47.444Z,5.00
2023-04-28T22:08:17.077Z,5.10
2023-04-28T22:10:45.725Z,4.80
2023-04-28T22:13:14.502Z,4.80
2023-04-28T22:15:42.727Z,4.90
2023-04-28T22:18:10.400Z,4.90
2023-04-28T22:20:37.907Z,5.10
2023-04-28T22:23:05.586Z,4.90
2023-04-28T22:25:33.084Z,4.90
2023-04-28T22:28:00.677Z,5.00
2023-04-28T22:30:31.561Z,5.00
2023-04-28T22:32:59.051Z,5.30
2023-04-28T22:35:26.529Z,5.20
2023-04-28T22:37:53.983Z,5.60
2023-04-28T22:40:21.670Z,5.10
2023-04-28T22:42:49.108Z,5.20
2023-04-28T22:45:16.605Z,5.30
2023-04-28T22:47:44.191Z,5.40
2023-04-28T22:50:12.781Z,5.10
2023-04-28T22:52:40.495Z,5.00
2023-04-28T22:55:08.556Z,5.00
2023-04-28T22:57:36.616Z,5.20
2023-04-28T23:00:04.317Z,5.20
2023-04-28T23:02:32.136Z,5.20
2023-04-28T23:05:00.269Z,6.00
2023-04-28T23:07:27.896Z,5.30
2023-04-28T23:09:55.359Z,5.50
2023-04-28T23:12:22.787Z,5.10
2023-04-28T23:14:50.290Z,5.00
2023-04-28T23:17:17.568Z,5.00
2023-04-28T23:19:45.061Z,5.00
2023-04-28T23:22:12.567Z,5.00
2023-04-28T23:24:40.239Z,4.90
2023-04-28T23:27:08.036Z,4.90
2023-04-28T23:29:36.183Z,4.90
2023-04-28T23:32:04.538Z,4.80
2023-04-28T23:34:32.077Z,4.70
2023-04-28T23:36:59.610Z,4.90
2023-04-28T23:39:30.188Z,4.80
2023-04-28T23:41:58.906Z,4.90
2023-04-28T23:44:26.340Z,4.80
2023-04-28T23:46:55.907Z,4.80
2023-04-28T23:49:23.931Z,4.90
2023-04-28T23:51:51.338Z,4.70
2023-04-28T23:54:18.739Z,5.20
2023-04-28T23:56:46.213Z,4.80
2023-04-28T23:59:13.601Z,4.10
